createdAt,value
2023-08-05T00:00:39.665Z,100849.03
2023-08-05T00:03:06.396Z,100849.84
2023-08-05T00:05:33.307Z,100851.38
2023-08-05T00:07:59.944Z,100847.84
2023-08-05T00:10:26.655Z,100846.59
2023-08-05T00:12:53.269Z,100850.19
2023-08-05T00:15:20.054Z,100839.78
2023-08-05T00:17:46.739Z,100834.19
2023-08-05T00:20:13.666Z,100836.66
2023-08-05T00:22:40.501Z,100828.97
2023-08-05T00:25:07.647Z,100838.97
2023-08-05T00:27:34.401Z,100831.78
2023-08-05T00:30:01.302Z,100822.16
2023-08-05T00:32:28.855Z,100821.28
2023-08-05T00:34:55.710Z,100813.69
2023-08-05T00:37:23.627Z,100817.66
2023-08-05T00:39:50.526Z,100810.06
2023-08-05T00:42:20.020Z,100813.31
2023-08-05T00:44:47.699Z,100807.28
2023-08-05T00:47:17.822Z,100815.31
2023-08-05T00:49:45.484Z,100806.06
2023-08-05T00:52:14.313Z,100809.25
2023-08-05T00:54:41.350Z,100802.84
2023-08-05T00:57:11.712Z,100802.00
2023-08-05T00:59:40.252Z,100798.41
2023-08-05T01:02:07.905Z,100799.59
2023-08-05T01:04:35.777Z,100803.53
2023-08-05T01:07:02.984Z,100793.53
2023-08-05T01:09:31.643Z,100796.34
2023-08-05T01:11:58.565Z,100787.41
2023-08-05T01:14:25.430Z,100785.81
2023-08-05T01:16:52.559Z,100789.78
2023-08-05T01:19:21.844Z,100785.69
2023-08-05T01:22:40.430Z,100785.00
2023-08-05T01:25:23.757Z,100779.72
2023-08-05T01:27:52.141Z,100779.28
2023-08-05T01:30:18.958Z,100776.09
2023-08-05T01:32:46.317Z,100776.94
2023-08-05T01:35:13.324Z,100774.13
2023-08-05T01:37:40.137Z,100773.69
2023-08-05T01:40:07.223Z,100768.06
2023-08-05T01:42:33.954Z,100767.25
2023-08-05T01:45:00.740Z,100772.53
2023-08-05T01:47:27.437Z,100766.44
2023-08-05T01:49:54.033Z,100774.41
2023-08-05T01:52:20.823Z,100775.22
2023-08-05T01:54:47.796Z,100771.59
2023-08-05T01:57:14.797Z,100773.56
2023-08-05T01:59:41.743Z,100768.34
2023-08-05T02:02:08.507Z,100779.88
2023-08-05T02:04:35.258Z,100770.66
2023-08-05T02:07:01.928Z,100780.59
2023-08-05T02:09:28.599Z,100785.84
2023-08-05T02:11:55.308Z,100778.16
2023-08-05T02:14:22.006Z,100782.13
2023-08-05T02:16:49.515Z,100791.00
2023-08-05T02:19:16.650Z,100779.81
2023-08-05T02:21:43.450Z,100787.00
2023-08-05T02:24:11.219Z,100781.31
2023-08-05T02:26:38.849Z,100782.13
2023-08-05T02:29:05.573Z,100786.91
2023-08-05T02:31:33.907Z,100778.06
2023-08-05T02:34:00.813Z,100774.44
2023-08-05T02:36:27.455Z,100769.22
2023-08-05T02:38:54.276Z,100773.53
2023-08-05T02:41:21.034Z,100772.34
2023-08-05T02:43:47.953Z,100766.03
2023-08-05T02:46:14.702Z,100764.44
2023-08-05T02:48:41.437Z,100758.00
2023-08-05T02:51:08.357Z,100756.38
2023-08-05T02:53:35.151Z,100750.44
2023-08-05T02:56:02.068Z,100746.00
2023-08-05T02:58:29.475Z,100746.00
2023-08-05T03:01:05.525Z,100739.56
2023-08-05T03:03:32.330Z,100729.91
2023-08-05T03:06:00.268Z,100729.91
2023-08-05T03:08:27.750Z,100717.56
2023-08-05T03:11:01.748Z,100712.28
2023-08-05T03:13:29.751Z,100717.06
2023-08-05T03:16:10.694Z,100712.66
2023-08-05T03:18:40.676Z,100712.66
2023-08-05T03:21:07.905Z,100718.25
2023-08-05T03:23:37.357Z,100723.38
2023-08-05T03:26:04.372Z,100721.06
2023-08-05T03:28:31.349Z,100713.00
2023-08-05T03:30:58.527Z,100712.19
2023-08-05T03:33:28.794Z,100717.00
2023-08-05T03:35:57.516Z,100713.38
2023-08-05T03:38:27.098Z,100714.53
2023-08-05T03:40:55.222Z,100713.38
2023-08-05T03:43:22.748Z,100714.53
2023-08-05T03:45:52.745Z,100703.34
2023-08-05T03:48:20.139Z,100711.41
2023-08-05T03:50:47.925Z,100714.53
2023-08-05T03:53:15.181Z,100714.09
2023-08-05T03:55:41.840Z,100708.50
2023-08-05T03:58:08.977Z,100704.06
2023-08-05T04:00:41.151Z,100704.06
2023-08-05T04:03:07.882Z,100705.69
2023-08-05T04:05:34.742Z,100692.34
2023-08-05T04:08:01.493Z,100692.03
2023-08-05T04:10:28.235Z,100684.31
2023-08-05T04:12:55.438Z,100678.06
2023-08-05T04:15:23.560Z,100674.19
2023-08-05T04:17:51.334Z,100671.47
2023-08-05T04:20:19.116Z,100659.91
2023-08-05T04:22:50.274Z,100673.19
2023-08-05T04:25:17.029Z,100668.03
2023-08-05T04:27:43.697Z,100674.56
2023-08-05T04:30:11.052Z,100677.78
2023-08-05T04:32:38.244Z,100664.22
2023-08-05T04:35:05.334Z,100654.66
2023-08-05T04:37:32.657Z,100656.34
2023-08-05T04:39:59.404Z,100658.44
2023-08-05T04:42:26.087Z,100651.31
2023-08-05T04:44:53.236Z,100653.31
2023-08-05T04:47:19.869Z,100651.75
2023-08-05T04:49:46.731Z,100654.66
2023-08-05T04:52:15.194Z,100646.97
2023-08-05T04:54:45.517Z,100639.81
2023-08-05T04:57:13.522Z,100635.03
2023-08-05T04:59:41.285Z,100641.09
2023-08-05T05:02:08.164Z,100635.81
2023-08-05T05:04:35.542Z,100631.84
2023-08-05T05:07:02.669Z,100643.50
2023-08-05T05:09:29.675Z,100623.88
2023-08-05T05:11:56.480Z,100623.88
2023-08-05T05:14:23.239Z,100626.81
2023-08-05T05:16:50.793Z,100640.38
2023-08-05T05:19:17.737Z,100642.28
2023-08-05T05:21:44.688Z,100629.44
2023-08-05T05:24:11.476Z,100624.56
2023-08-05T05:26:38.407Z,100617.31
2023-08-05T05:29:05.752Z,100617.31
2023-08-05T05:31:32.831Z,100612.91
2023-08-05T05:33:59.564Z,100623.31
2023-08-05T05:36:26.217Z,100624.84
2023-08-05T05:38:52.921Z,100626.44
2023-08-05T05:41:19.640Z,100628.81
2023-08-05T05:43:46.391Z,100628.81
2023-08-05T05:46:15.748Z,100627.94
2023-08-05T05:48:42.625Z,100627.13
2023-08-05T05:51:09.490Z,100614.28
2023-08-05T05:53:36.397Z,100614.28
2023-08-05T05:56:04.259Z,100608.66
2023-08-05T05:58:34.655Z,100613.44
2023-08-05T06:01:02.539Z,100606.25
2023-08-05T06:03:36.062Z,100597.03
2023-08-05T06:06:03.104Z,100600.63
2023-08-05T06:08:30.009Z,100599.00
2023-08-05T06:10:56.923Z,100602.78
2023-08-05T06:13:23.767Z,100599.69
2023-08-05T06:15:50.562Z,100595.72
2023-08-05T06:18:17.129Z,100594.25
2023-08-05T06:20:43.931Z,100595.13
2023-08-05T06:23:10.793Z,100604.75
2023-08-05T06:25:39.099Z,100595.13
2023-08-05T06:28:05.922Z,100592.41
2023-08-05T06:30:33.144Z,100593.69
2023-08-05T06:32:59.845Z,100604.88
2023-08-05T06:35:26.739Z,100606.63
2023-08-05T06:37:53.682Z,100601.34
2023-08-05T06:40:20.561Z,100598.56
2023-08-05T06:42:47.480Z,100600.19
2023-08-05T06:45:14.378Z,100599.47
2023-08-05T06:47:41.197Z,100595.91
2023-08-05T06:50:08.962Z,100588.28
2023-08-05T06:52:35.840Z,100585.16
2023-08-05T06:55:05.159Z,100577.97
2023-08-05T06:57:32.341Z,100569.22
2023-08-05T06:59:59.932Z,100574.88
2023-08-05T07:02:27.134Z,100578.06
2023-08-05T07:04:54.445Z,100577.34
2023-08-05T07:07:21.519Z,100573.72
2023-08-05T07:09:48.316Z,100555.63
2023-08-05T07:12:15.299Z,100557.09
2023-08-05T07:14:45.749Z,100558.22
2023-08-05T07:17:13.020Z,100569.78
2023-08-05T07:19:39.999Z,100566.97
2023-08-05T07:22:07.108Z,100562.53
2023-08-05T07:24:33.991Z,100564.56
2023-08-05T07:27:00.780Z,100558.13
2023-08-05T07:29:30.114Z,100559.31
2023-08-05T07:31:57.253Z,100560.47
2023-08-05T07:34:25.161Z,100553.25
2023-08-05T07:36:51.917Z,100548.91
2023-08-05T07:39:18.654Z,100553.13
2023-08-05T07:41:45.525Z,100551.19
2023-08-05T07:44:13.554Z,100550.84
2023-08-05T07:46:42.233Z,100540.41
2023-08-05T07:49:09.134Z,100538.97
2023-08-05T07:51:35.813Z,100538.25
2023-08-05T07:54:02.452Z,100538.25
2023-08-05T07:56:29.188Z,100530.28
2023-08-05T07:58:55.843Z,100534.69
2023-08-05T08:01:25.784Z,100526.16
2023-08-05T08:03:57.666Z,100528.47
2023-08-05T08:06:24.485Z,100528.41
2023-08-05T08:08:52.224Z,100524.38
2023-08-05T08:11:18.948Z,100517.47
2023-08-05T08:13:45.650Z,100515.06
2023-08-05T08:16:12.477Z,100514.63
2023-08-05T08:18:39.125Z,100515.47
2023-08-05T08:21:06.489Z,100506.78
2023-08-05T08:23:33.436Z,100503.72
2023-08-05T08:26:00.932Z,100498.56
2023-08-05T08:28:28.339Z,100503.84
2023-08-05T08:30:57.418Z,100505.50
2023-08-05T08:33:26.023Z,100490.28
2023-08-05T08:35:53.478Z,100482.75
2023-08-05T08:38:23.854Z,100484.38
2023-08-05T08:40:53.247Z,100476.28
2023-08-05T08:43:21.617Z,100475.75
2023-08-05T08:45:53.567Z,100473.31
2023-08-05T08:48:24.645Z,100467.59
2023-08-05T08:50:54.545Z,100467.16
2023-08-05T08:53:22.870Z,100458.31
2023-08-05T08:55:50.183Z,100455.53
2023-08-05T08:58:17.040Z,100449.09
2023-08-05T09:00:44.123Z,100448.28
2023-08-05T09:03:11.621Z,100435.81
2023-08-05T09:05:50.789Z,100438.63
2023-08-05T09:08:17.770Z,100441.00
2023-08-05T09:10:45.554Z,100436.56
2023-08-05T09:13:12.491Z,100430.94
2023-08-05T09:15:40.605Z,100421.63
2023-08-05T09:18:09.891Z,100414.44
2023-08-05T09:20:38.681Z,100413.63
2023-08-05T09:23:07.764Z,100405.56
2023-08-05T09:25:39.108Z,100399.53
2023-08-05T09:28:07.253Z,100401.50
2023-08-05T09:30:34.902Z,100396.72
2023-08-05T09:33:02.319Z,100383.88
2023-08-05T09:35:29.312Z,100375.47
2023-08-05T09:37:56.688Z,100376.66
2023-08-05T09:40:29.867Z,100371.06
2023-08-05T09:43:03.848Z,100371.06
2023-08-05T09:45:34.101Z,100369.44
2023-08-05T09:48:08.841Z,100370.25
2023-08-05T09:50:39.779Z,100371.41
2023-08-05T09:53:11.621Z,100363.00
2023-08-05T09:55:39.338Z,100364.72
2023-08-05T09:58:10.215Z,100362.09
2023-08-05T10:00:38.925Z,100366.59
2023-08-05T10:03:08.943Z,100368.31
2023-08-05T10:05:36.889Z,100352.75
2023-08-05T10:08:06.745Z,100348.78
2023-08-05T10:10:36.584Z,100354.88
2023-08-05T10:13:10.905Z,100354.94
2023-08-05T10:15:42.080Z,100358.16
2023-08-05T10:18:10.997Z,100350.19
2023-08-05T10:20:39.602Z,100342.56
2023-08-05T10:23:11.294Z,100342.19
2023-08-05T10:25:45.706Z,100340.59
2023-08-05T10:28:24.790Z,100335.72
2023-08-05T10:30:52.919Z,100329.97
2023-08-05T10:33:19.994Z,100331.13
2023-08-05T10:35:47.486Z,100328.25
2023-08-05T10:38:18.150Z,100326.59
2023-08-05T10:40:48.227Z,100326.59
2023-08-05T10:43:27.319Z,100324.53
2023-08-05T10:45:54.382Z,100320.13
2023-08-05T10:48:21.278Z,100324.09
2023-08-05T10:50:49.859Z,100320.88
2023-08-05T10:53:16.714Z,100324.84
2023-08-05T10:55:47.817Z,100323.34
2023-08-05T10:58:15.785Z,100313.91
2023-08-05T11:00:43.627Z,100316.41
2023-08-05T11:03:32.051Z,100317.28
2023-08-05T11:06:06.220Z,100308.09
2023-08-05T11:08:34.615Z,100307.75
2023-08-05T11:11:03.501Z,100305.38
2023-08-05T11:13:34.776Z,100315.09
2023-08-05T11:16:15.565Z,100305.44
2023-08-05T11:18:56.203Z,100305.44
2023-08-05T11:21:23.757Z,100303.06
2023-08-05T11:23:50.605Z,100295.06
2023-08-05T11:26:21.964Z,100300.66
2023-08-05T11:28:48.874Z,100297.88
2023-08-05T11:31:25.867Z,100297.50
2023-08-05T11:33:54.437Z,100287.47
2023-08-05T11:36:28.847Z,100283.28
2023-08-05T11:39:01.422Z,100288.78
2023-08-05T11:41:29.268Z,100281.94
2023-08-05T11:43:56.697Z,100279.50
2023-08-05T11:46:27.537Z,100276.28
2023-08-05T11:49:11.091Z,100284.25
2023-08-05T11:51:51.277Z,100273.41
2023-08-05T11:54:33.258Z,100272.97
2023-08-05T11:57:00.553Z,100271.72
2023-08-05T11:59:57.795Z,100274.88
2023-08-05T12:02:27.964Z,100268.84
2023-08-05T12:05:04.159Z,100280.88
2023-08-05T12:07:32.768Z,100273.63
2023-08-05T12:10:14.203Z,100266.44
2023-08-05T12:12:51.141Z,100259.19
2023-08-05T12:18:18.392Z,100259.25
2023-08-05T12:20:47.270Z,100256.25
2023-08-05T12:23:14.004Z,100248.28
2023-08-05T12:25:40.646Z,100249.13
2023-08-05T12:28:07.352Z,100237.56
2023-08-05T12:30:34.608Z,100221.16
2023-08-05T12:33:01.669Z,100218.78
2023-08-05T12:35:28.791Z,100217.59
2023-08-05T12:37:55.834Z,100202.41
2023-08-05T12:40:22.589Z,100202.00
2023-08-05T12:42:49.343Z,100200.44
2023-08-05T12:45:16.046Z,100199.69
2023-08-05T12:47:42.865Z,100199.75
2023-08-05T12:50:10.168Z,100195.75
2023-08-05T12:52:37.081Z,100201.38
2023-08-05T12:55:04.281Z,100201.41
2023-08-05T12:57:33.313Z,100209.81
2023-08-05T13:00:00.761Z,100209.81
2023-08-05T13:02:27.753Z,100222.31
2023-08-05T13:04:54.769Z,100231.13
2023-08-05T13:07:21.611Z,100215.47
2023-08-05T13:09:48.390Z,100219.91
2023-08-05T13:12:15.099Z,100219.53
2023-08-05T13:14:43.631Z,100199.88
2023-08-05T13:17:10.429Z,100188.63
2023-08-05T13:19:37.498Z,100197.84
2023-08-05T13:22:04.790Z,100196.19
2023-08-05T13:24:34.464Z,100191.59
2023-08-05T13:27:02.768Z,100183.88
2023-08-05T13:29:29.932Z,100180.59
2023-08-05T13:31:57.101Z,100183.41
2023-08-05T13:34:23.942Z,100172.94
2023-08-05T13:36:50.636Z,100168.16
2023-08-05T13:39:17.476Z,100164.94
2023-08-05T13:41:44.232Z,100162.47
2023-08-05T13:44:11.085Z,100148.03
2023-08-05T13:46:38.125Z,100151.25
2023-08-05T13:49:04.912Z,100141.63
2023-08-05T13:51:31.944Z,100144.44
2023-08-05T13:53:58.710Z,100132.41
2023-08-05T13:56:27.253Z,100133.59
2023-08-05T13:58:54.010Z,100130.31
2023-08-05T14:01:20.738Z,100136.69
2023-08-05T14:03:47.535Z,100135.91
2023-08-05T14:06:15.035Z,100132.28
2023-08-05T14:08:42.067Z,100133.44
2023-08-05T14:11:08.847Z,100123.88
2023-08-05T14:13:36.294Z,100119.06
2023-08-05T14:16:03.556Z,100127.03
2023-08-05T14:18:30.301Z,100123.88
2023-08-05T14:20:57.041Z,100129.72
2023-08-05T14:23:23.887Z,100122.59
2023-08-05T14:25:50.896Z,100123.88
2023-08-05T14:28:19.193Z,100118.69
2023-08-05T14:30:46.150Z,100121.91
2023-08-05T14:33:13.968Z,100109.91
2023-08-05T14:35:40.660Z,100104.41
2023-08-05T14:38:07.424Z,100103.97
2023-08-05T14:40:37.690Z,100096.00
2023-08-05T14:43:05.710Z,100093.19
2023-08-05T14:45:32.489Z,100086.00
2023-08-05T14:47:59.486Z,100072.41
2023-08-05T14:50:26.512Z,100070.81
2023-08-05T14:52:53.486Z,100055.63
2023-08-05T14:55:20.589Z,100052.81
2023-08-05T14:57:49.055Z,100047.97
2023-08-05T15:00:15.905Z,100043.53
2023-08-05T15:02:42.782Z,100031.53
2023-08-05T15:05:09.922Z,100015.38
2023-08-05T15:07:36.680Z,100005.63
2023-08-05T15:10:04.412Z,100001.56
2023-08-05T15:12:31.408Z,100006.75
2023-08-05T15:14:58.374Z,100001.47
2023-08-05T15:17:25.351Z,99992.66
2023-08-05T15:19:53.469Z,99987.81
2023-08-05T15:22:20.737Z,99988.53
2023-08-05T15:24:47.737Z,99985.28
2023-08-05T15:27:14.988Z,99979.31
2023-08-05T15:29:42.031Z,99966.88
2023-08-05T15:32:09.092Z,99978.19
2023-08-05T15:34:36.360Z,99968.25
2023-08-05T15:37:03.064Z,99964.69
2023-08-05T15:39:33.167Z,99964.72
2023-08-05T15:41:59.934Z,99951.94
2023-08-05T15:44:26.586Z,99939.91
2023-08-05T15:46:53.433Z,99947.94
2023-08-05T15:49:21.040Z,99941.13
2023-08-05T15:51:48.575Z,99935.19
2023-08-05T15:54:15.484Z,99942.41
2023-08-05T15:56:42.407Z,99945.66
2023-08-05T15:59:09.502Z,99940.44
2023-08-05T16:01:38.364Z,99937.66
2023-08-05T16:04:05.608Z,99935.25
2023-08-05T16:06:32.371Z,99924.00
2023-08-05T16:08:59.140Z,99921.63
2023-08-05T16:11:25.915Z,99922.44
2023-08-05T16:13:52.602Z,99927.25
2023-08-05T16:16:19.577Z,99916.78
2023-08-05T16:18:47.100Z,99909.88
2023-08-05T16:21:21.534Z,99899.00
2023-08-05T16:23:54.872Z,99893.34
2023-08-05T16:26:23.300Z,99890.50
2023-08-05T16:28:50.899Z,99894.06
2023-08-05T16:31:19.985Z,99884.88
2023-08-05T16:33:47.212Z,99876.47
2023-08-05T16:36:14.108Z,99876.56
2023-08-05T16:38:44.577Z,99871.78
2023-08-05T16:41:11.368Z,99871.00
2023-08-05T16:43:38.072Z,99860.66
2023-08-05T16:46:07.485Z,99853.84
2023-08-05T16:48:34.809Z,99850.28
2023-08-05T16:51:01.887Z,99843.09
2023-08-05T16:53:31.180Z,99840.72
2023-08-05T16:56:01.889Z,99843.94
2023-08-05T16:58:28.845Z,99839.94
2023-08-05T17:00:57.324Z,99843.16
2023-08-05T17:03:24.532Z,99834.75
2023-08-05T17:05:55.099Z,99833.13
2023-08-05T17:08:21.826Z,99828.78
2023-08-05T17:10:48.502Z,99827.19
2023-08-05T17:13:15.398Z,99817.50
2023-08-05T17:15:46.319Z,99824.66
2023-08-05T17:18:13.745Z,99816.69
2023-08-05T17:20:41.528Z,99811.91
2023-08-05T17:23:08.701Z,99811.13
2023-08-05T17:25:40.267Z,99806.25
2023-08-05T17:28:07.127Z,99803.78
2023-08-05T17:30:37.676Z,99796.91
2023-08-05T17:33:05.331Z,99790.47
2023-08-05T17:35:33.394Z,99782.84
2023-08-05T17:38:00.832Z,99789.25
2023-08-05T17:40:30.496Z,99779.97
2023-08-05T17:42:57.633Z,99778.34
2023-08-05T17:45:24.420Z,99777.56
2023-08-05T17:47:51.264Z,99769.53
2023-08-05T17:50:18.010Z,99772.34
2023-08-05T17:52:44.636Z,99767.50
2023-08-05T17:55:11.365Z,99764.25
2023-08-05T17:57:38.047Z,99761.00
2023-08-05T18:00:05.431Z,99759.44
2023-08-05T18:02:32.271Z,99768.31
2023-08-05T18:04:59.094Z,99767.59
2023-08-05T18:07:26.091Z,99766.81
2023-08-05T18:09:52.963Z,99758.03
2023-08-05T18:12:19.778Z,99753.22
2023-08-05T18:14:48.050Z,99746.84
2023-08-05T18:17:16.247Z,99754.06
2023-08-05T18:19:43.411Z,99751.69
2023-08-05T18:22:10.520Z,99754.09
2023-08-05T18:24:37.269Z,99754.16
2023-08-05T18:27:04.358Z,99752.13
2023-08-05T18:29:31.026Z,99746.13
2023-08-05T18:31:58.959Z,99750.53
2023-08-05T18:34:25.907Z,99743.72
2023-08-05T18:36:52.576Z,99744.91
2023-08-05T18:39:19.188Z,99740.53
2023-08-05T18:41:48.955Z,99742.91
2023-08-05T18:44:16.144Z,99744.53
2023-08-05T18:46:43.026Z,99740.56
2023-08-05T18:49:09.738Z,99745.38
2023-08-05T18:51:36.399Z,99751.00
2023-08-05T18:54:03.133Z,99744.19
2023-08-05T18:56:29.830Z,99742.25
2023-08-05T18:58:56.488Z,99739.81
2023-08-05T19:01:23.379Z,99737.41
2023-08-05T19:03:50.223Z,99747.84
2023-08-05T19:06:16.931Z,99738.22
2023-08-05T19:08:43.525Z,99728.63
2023-08-05T19:11:15.089Z,99730.22
2023-08-05T19:13:42.316Z,99732.22
2023-08-05T19:16:08.961Z,99727.44
2023-08-05T19:18:36.554Z,99715.00
2023-08-05T19:21:07.088Z,99713.41
2023-08-05T19:23:35.101Z,99712.19
2023-08-05T19:26:02.987Z,99717.38
2023-08-05T19:28:29.864Z,99712.19
2023-08-05T19:30:56.832Z,99703.75
2023-08-05T19:33:23.839Z,99705.78
2023-08-05T19:35:50.599Z,99707.41
2023-08-05T19:38:17.375Z,99711.03
2023-08-05T19:40:44.603Z,99712.59
2023-08-05T19:43:11.672Z,99700.53
2023-08-05T19:45:38.452Z,99698.09
2023-08-05T19:48:05.425Z,99694.09
2023-08-05T19:50:32.285Z,99697.22
2023-08-05T19:52:59.126Z,99688.81
2023-08-05T19:55:30.207Z,99683.59
2023-08-05T19:57:57.138Z,99684.38
2023-08-05T20:00:24.020Z,99676.72
2023-08-05T20:02:50.872Z,99682.75
2023-08-05T20:05:17.838Z,99677.91
2023-08-05T20:07:44.548Z,99679.50
2023-08-05T20:10:12.087Z,99677.09
2023-08-05T20:12:39.958Z,99671.47
2023-08-05T20:15:07.040Z,99676.25
2023-08-05T20:17:33.758Z,99673.03
2023-08-05T20:20:00.403Z,99676.59
2023-08-05T20:22:27.864Z,99678.63
2023-08-05T20:24:55.538Z,99679.50
2023-08-05T20:27:22.439Z,99677.94
2023-08-05T20:29:49.240Z,99680.38
2023-08-05T20:32:16.049Z,99670.38
2023-08-05T20:37:29.413Z,99674.00
2023-08-05T20:39:56.421Z,99669.22
2023-08-05T20:42:23.104Z,99665.22
2023-08-05T20:44:50.248Z,99659.22
2023-08-05T20:47:17.134Z,99665.28
2023-08-05T20:49:43.837Z,99658.84
2023-08-05T20:52:10.785Z,99650.00
2023-08-05T20:54:37.620Z,99642.00
2023-08-05T20:57:04.669Z,99635.63
2023-08-05T20:59:31.547Z,99640.41
2023-08-05T21:01:58.447Z,99630.00
2023-08-05T21:04:25.237Z,99639.88
2023-08-05T21:06:54.248Z,99630.97
2023-08-05T21:09:21.051Z,99622.88
2023-08-05T21:11:47.791Z,99619.63
2023-08-05T21:14:14.378Z,99613.59
2023-08-05T21:16:41.385Z,99616.41
2023-08-05T21:19:08.211Z,99619.19
2023-08-05T21:21:35.119Z,99620.75
2023-08-05T21:24:01.935Z,99615.13
2023-08-05T21:26:28.588Z,99608.69
2023-08-05T21:28:55.240Z,99610.22
2023-08-05T21:31:21.989Z,99601.41
2023-08-05T21:33:48.671Z,99603.00
2023-08-05T21:36:16.028Z,99599.78
2023-08-05T21:38:42.669Z,99587.75
2023-08-05T21:41:10.319Z,99597.34
2023-08-05T21:43:37.095Z,99589.31
2023-08-05T21:46:04.004Z,99577.69
2023-08-05T21:48:31.424Z,99571.63
2023-08-05T21:51:05.044Z,99557.63
2023-08-05T21:53:31.818Z,99547.59
2023-08-05T21:55:58.734Z,99553.59
2023-08-05T21:58:25.553Z,99550.34
2023-08-05T22:00:54.224Z,99549.50
2023-08-05T22:03:21.417Z,99540.72
2023-08-05T22:05:48.100Z,99541.88
2023-08-05T22:08:14.942Z,99541.88
2023-08-05T22:10:41.757Z,99541.88
2023-08-05T22:13:08.497Z,99536.56
2023-08-05T22:15:35.388Z,99544.16
2023-08-05T22:18:02.398Z,99541.78
2023-08-05T22:20:29.312Z,99542.59
2023-08-05T22:22:56.235Z,99539.38
2023-08-05T22:25:23.084Z,99537.78
2023-08-05T22:27:49.830Z,99533.34
2023-08-05T22:30:16.547Z,99535.75
2023-08-05T22:32:43.273Z,99535.75
2023-08-05T22:35:10.154Z,99527.34
2023-08-05T22:37:36.925Z,99528.53
2023-08-05T22:40:04.537Z,99516.94
2023-08-05T22:42:31.584Z,99518.50
2023-08-05T22:44:58.208Z,99512.09
2023-08-05T22:47:25.001Z,99510.47
2023-08-05T22:49:51.742Z,99512.03
2023-08-05T22:52:18.722Z,99512.03
2023-08-05T22:54:45.536Z,99516.03
2023-08-05T22:57:12.405Z,99512.03
2023-08-05T22:59:39.357Z,99515.63
2023-08-05T23:02:06.750Z,99512.03
2023-08-05T23:04:33.506Z,99514.41
2023-08-05T23:07:00.393Z,99503.22
2023-08-05T23:09:27.220Z,99499.63
2023-08-05T23:11:54.506Z,99498.44
2023-08-05T23:14:21.407Z,99499.22
2023-08-05T23:16:48.284Z,99495.59
2023-08-05T23:19:15.134Z,99495.19
2023-08-05T23:21:44.019Z,99496.38
2023-08-05T23:24:11.485Z,99495.19
2023-08-05T23:26:39.122Z,99503.16
2023-08-05T23:29:06.333Z,99491.94
2023-08-05T23:31:34.213Z,99495.56
2023-08-05T23:34:01.224Z,99492.75
2023-08-05T23:36:28.504Z,99487.16
2023-08-05T23:38:55.260Z,99492.75
2023-08-05T23:41:22.270Z,99495.56
2023-08-05T23:43:49.105Z,99495.13
2023-08-05T23:46:16.215Z,99499.91
2023-08-05T23:48:43.086Z,99495.13
2023-08-05T23:51:09.930Z,99486.31
2023-08-05T23:53:36.857Z,99475.94
2023-08-05T23:56:03.727Z,99483.50
2023-08-05T23:58:30.520Z,99484.69
